Limpio, con algunas nubes bajas y cirrus
Nublado
Nublado
Nublado
Nublado
Nublado
Nublado
(°C)
(°C)
-3°
-3°
-3°
-3°
-2°
-2°
-2°
NNO
NO
ONO
SE
SSE
SSO
ONO
(km/h)
12-34
12-34
12-36
12-33
11-31
10-32
10-30
(mm)
0
0
0
0
0
0
0
(%)
0
0
0
0
0
0
0

Elevación del sol

/ -42.3°
sun-icon
UV 2
07:01
17:53
Gibosa menguante (191°)
18:54
07:39

METAR a Innsbruck (LOWI)

Hora Condiciones Temperatura/
Punto de condensación
Viento Visibilidad Tiempo Nubes Presión Cambiar Bruto
VFR 1°C / -1°C 260º variable 220º to 280º 6kt. Wind Shear present on Runway 08. 9700m - Few Clouds 6000ft 1003 No Significant change LOWI 252050Z 26006KT 220V280 9999 FEW060 01/M01 Q1003 WS R08 NOSIG
VFR 2°C / -1°C 270º variable 200º to 310º 4kt. Wind Shear present on Runway 08. 9700m - Few Clouds 6000ft 1004 No Significant change LOWI 252020Z 27004KT 200V310 9999 FEW060 02/M01 Q1004 WS R08 NOSIG
VFR 2°C / 0°C 210º variable 140º to 280º 4kt. Wind Shear present on Runway 08. 9700m - Few Clouds 6000ft 1004 No Significant change LOWI 251950Z 21004KT 140V280 9999 FEW060 02/M00 Q1004 WS R08 NOSIG
VFR 3°C / 0°C 250º variable 130º to 290º 4kt. Wind Shear present on Runway 08. 9700m - Few Clouds 6000ft 1004 No Significant change LOWI 251920Z 25004KT 130V290 9999 FEW060 03/M00 Q1004 WS R08 NOSIG
VFR 3°C / -1°C 280º variable 230º to 340º 4kt 9700m - Few Clouds 6000ft 1004 No Significant change LOWI 251850Z 28004KT 230V340 9999 FEW060 03/M01 Q1004 NOSIG
VFR 5°C / -1°C 100º variable 030º to 200º 5kt. Wind Shear present on All Runways. 9700m - Few Clouds 6000ft 1004 No Significant change LOWI 251820Z 10005KT 030V200 9999 FEW060 05/M01 Q1004 WS ALL RWY NOSIG
VFR 6°C / -1°C 140º variable 080º to 220º 7kt. Wind Shear present on All Runways. 9700m - Few Clouds 6000ft 1004 No Significant change LOWI 251750Z 14007KT 080V220 9999 FEW060 06/M01 Q1004 WS ALL RWY NOSIG
VFR 7°C / -2°C 120º variable 060º to 190º 9kt 9700m - Few Clouds 6000ft 1004 No Significant change LOWI 251720Z 12009KT 060V190 9999 FEW060 07/M02 Q1004 NOSIG
VFR 8°C / -3°C 140º variable 030º to 190º 9kt Gust 19kt 9700m - Few Clouds 6000ft 1004 No Significant change LOWI 251650Z 14009G19KT 030V190 9999 FEW060 08/M03 Q1004 NOSIG
VFR 8°C / -3°C 120º variable 070º to 170º 11kt. Wind Shear present on All Runways. 9700m - Few Clouds 6000ft 1004 No Significant change LOWI 251620Z 12011KT 070V170 9999 FEW060 08/M03 Q1004 WS ALL RWY NOSIG
VFR 9°C / -2°C 140º variable 100º to 190º 12kt. Wind Shear present on All Runways. 9700m - Few Clouds 6000ft 1004 No Significant change LOWI 251550Z 14012KT 100V190 9999 FEW060 09/M02 Q1004 WS ALL RWY NOSIG
VFR 9°C / -3°C 130º variable 090º to 180º 7kt. Wind Shear present on All Runways. 9700m - Few Clouds 6000ft 1004 No Significant change LOWI 251520Z 13007KT 090V180 9999 FEW060 09/M03 Q1004 WS ALL RWY NOSIG
VFR 10°C / -3°C 5kt. Wind Shear present on All Runways. 9700m - Few Clouds 6000ft 1004 Temporary: Wind 120º 15kt. Gust 25KT. LOWI 251450Z VRB05KT 9999 FEW060 10/M03 Q1004 WS ALL RWY TEMPO 12015G25KT
VFR 11°C / -1°C 4kt. Wind Shear present on All Runways. 9700m - Few Clouds 6000ft 1004 Temporary: Wind 120º 15kt. Gust 25KT. LOWI 251420Z VRB04KT 9999 FEW060 11/M01 Q1004 WS ALL RWY TEMPO 12015G25KT
VFR 10°C / -1°C 30º variable 350º to 060º 9kt. Wind Shear present on All Runways. 9700m - Few Clouds 6000ft 1004 Becoming: Wind 120º 15kt. Gust 25KT. LOWI 251350Z 03009KT 350V060 9999 FEW060 10/M01 Q1004 WS ALL RWY BECMG 12015G25KT
VFR 9°C / 2°C 260º variable 220º to 300º 5kt. Wind Shear present on Runway 26. 9700m - Few Clouds 6000ft 1004 Becoming: Wind 120º 15kt. Gust 25KT. LOWI 251320Z 26005KT 220V300 9999 FEW060 09/02 Q1004 WS R26 BECMG 12015G25KT
VFR 8°C / 3°C 240º variable 180º to 320º 5kt. Wind Shear present on All Runways. 9700m - Few Clouds 5000ft 1005 Becoming: Wind 120º 15kt. Gust 25KT. LOWI 251250Z 24005KT 180V320 9999 FEW050 08/03 Q1005 WS ALL RWY BECMG 12015G25KT
VFR 7°C / 2°C 270º 7kt. Wind Shear present on Runway 26. 9700m - Few Clouds 5000ft 1005 Becoming: from 1300 Wind 120º 15kt. Gust 25KT. LOWI 251220Z 27007KT 9999 FEW050 07/02 Q1005 WS R26 BECMG FM1300 12015G25KT
VFR 6°C / 2°C 270º variable 240º to 300º 6kt 9700m - Few Clouds 5000ft 1006 No Significant change LOWI 251150Z 27006KT 240V300 9999 FEW050 06/02 Q1006 NOSIG
VFR 5°C / 1°C 270º variable 200º to 310º 6kt 9700m - Few Clouds 1400ft 1006 No Significant change LOWI 251120Z 27006KT 200V310 9999 FEW014 05/01 Q1006 NOSIG
VFR 4°C / 1°C 260º variable 180º to 310º 4kt 9700m - Few Clouds 1100ft 1007 No Significant change LOWI 251050Z 26004KT 180V310 9999 FEW011 04/01 Q1007 NOSIG
VFR 4°C / 1°C 290º variable 230º to 010º 3kt 9700m - Few Clouds 400ft
Scattered Clouds 1100ft
1007 No Significant change LOWI 251020Z 29003KT 230V010 9999 FEW004 SCT011 04/01 Q1007 NOSIG
MVFR 3°C / 1°C 280º variable 230º to 310º 3kt 9700m - Few Clouds 400ft
Broken Clouds 1100ft
1008 Becoming: Scattered Clouds 1200ft. LOWI 250950Z 28003KT 230V310 9999 FEW004 BKN011 03/01 Q1008 BECMG SCT012
MVFR 3°C / 2°C 1kt 6000m - Few Clouds 400ft
Broken Clouds 1000ft
1008 Becoming: Scattered Clouds 1000ft. LOWI 250920Z VRB01KT 6000 FEW004 BKN010 03/02 Q1008 BECMG SCT010

VFR

1°C / -1°C

[Más]
Viento 260º variable 220º to 280º 6kt. Wind Shear present on Runway 08.
Visibilidad 9700m
Tiempo -
Nubes Few Clouds 6000ft
Presión 1003
Cambiar No Significant change
Bruto LOWI 252050Z 26006KT 220V280 9999 FEW060 01/M01 Q1003 WS R08 NOSIG

VFR

2°C / -1°C

[Más]
Viento 270º variable 200º to 310º 4kt. Wind Shear present on Runway 08.
Visibilidad 9700m
Tiempo -
Nubes Few Clouds 6000ft
Presión 1004
Cambiar No Significant change
Bruto LOWI 252020Z 27004KT 200V310 9999 FEW060 02/M01 Q1004 WS R08 NOSIG

VFR

2°C / 0°C

[Más]
Viento 210º variable 140º to 280º 4kt. Wind Shear present on Runway 08.
Visibilidad 9700m
Tiempo -
Nubes Few Clouds 6000ft
Presión 1004
Cambiar No Significant change
Bruto LOWI 251950Z 21004KT 140V280 9999 FEW060 02/M00 Q1004 WS R08 NOSIG

VFR

3°C / 0°C

[Más]
Viento 250º variable 130º to 290º 4kt. Wind Shear present on Runway 08.
Visibilidad 9700m
Tiempo -
Nubes Few Clouds 6000ft
Presión 1004
Cambiar No Significant change
Bruto LOWI 251920Z 25004KT 130V290 9999 FEW060 03/M00 Q1004 WS R08 NOSIG

VFR

3°C / -1°C

[Más]
Viento 280º variable 230º to 340º 4kt
Visibilidad 9700m
Tiempo -
Nubes Few Clouds 6000ft
Presión 1004
Cambiar No Significant change
Bruto LOWI 251850Z 28004KT 230V340 9999 FEW060 03/M01 Q1004 NOSIG

VFR

5°C / -1°C

[Más]
Viento 100º variable 030º to 200º 5kt. Wind Shear present on All Runways.
Visibilidad 9700m
Tiempo -
Nubes Few Clouds 6000ft
Presión 1004
Cambiar No Significant change
Bruto LOWI 251820Z 10005KT 030V200 9999 FEW060 05/M01 Q1004 WS ALL RWY NOSIG

VFR

6°C / -1°C

[Más]
Viento 140º variable 080º to 220º 7kt. Wind Shear present on All Runways.
Visibilidad 9700m
Tiempo -
Nubes Few Clouds 6000ft
Presión 1004
Cambiar No Significant change
Bruto LOWI 251750Z 14007KT 080V220 9999 FEW060 06/M01 Q1004 WS ALL RWY NOSIG

VFR

7°C / -2°C

[Más]
Viento 120º variable 060º to 190º 9kt
Visibilidad 9700m
Tiempo -
Nubes Few Clouds 6000ft
Presión 1004
Cambiar No Significant change
Bruto LOWI 251720Z 12009KT 060V190 9999 FEW060 07/M02 Q1004 NOSIG

VFR

8°C / -3°C

[Más]
Viento 140º variable 030º to 190º 9kt Gust 19kt
Visibilidad 9700m
Tiempo -
Nubes Few Clouds 6000ft
Presión 1004
Cambiar No Significant change
Bruto LOWI 251650Z 14009G19KT 030V190 9999 FEW060 08/M03 Q1004 NOSIG

VFR

8°C / -3°C

[Más]
Viento 120º variable 070º to 170º 11kt. Wind Shear present on All Runways.
Visibilidad 9700m
Tiempo -
Nubes Few Clouds 6000ft
Presión 1004
Cambiar No Significant change
Bruto LOWI 251620Z 12011KT 070V170 9999 FEW060 08/M03 Q1004 WS ALL RWY NOSIG

VFR

9°C / -2°C

[Más]
Viento 140º variable 100º to 190º 12kt. Wind Shear present on All Runways.
Visibilidad 9700m
Tiempo -
Nubes Few Clouds 6000ft
Presión 1004
Cambiar No Significant change
Bruto LOWI 251550Z 14012KT 100V190 9999 FEW060 09/M02 Q1004 WS ALL RWY NOSIG

VFR

9°C / -3°C

[Más]
Viento 130º variable 090º to 180º 7kt. Wind Shear present on All Runways.
Visibilidad 9700m
Tiempo -
Nubes Few Clouds 6000ft
Presión 1004
Cambiar No Significant change
Bruto LOWI 251520Z 13007KT 090V180 9999 FEW060 09/M03 Q1004 WS ALL RWY NOSIG

VFR

10°C / -3°C

[Más]
Viento 5kt. Wind Shear present on All Runways.
Visibilidad 9700m
Tiempo -
Nubes Few Clouds 6000ft
Presión 1004
Cambiar Temporary: Wind 120º 15kt. Gust 25KT.
Bruto LOWI 251450Z VRB05KT 9999 FEW060 10/M03 Q1004 WS ALL RWY TEMPO 12015G25KT

VFR

11°C / -1°C

[Más]
Viento 4kt. Wind Shear present on All Runways.
Visibilidad 9700m
Tiempo -
Nubes Few Clouds 6000ft
Presión 1004
Cambiar Temporary: Wind 120º 15kt. Gust 25KT.
Bruto LOWI 251420Z VRB04KT 9999 FEW060 11/M01 Q1004 WS ALL RWY TEMPO 12015G25KT

VFR

10°C / -1°C

[Más]
Viento 30º variable 350º to 060º 9kt. Wind Shear present on All Runways.
Visibilidad 9700m
Tiempo -
Nubes Few Clouds 6000ft
Presión 1004
Cambiar Becoming: Wind 120º 15kt. Gust 25KT.
Bruto LOWI 251350Z 03009KT 350V060 9999 FEW060 10/M01 Q1004 WS ALL RWY BECMG 12015G25KT

VFR

9°C / 2°C

[Más]
Viento 260º variable 220º to 300º 5kt. Wind Shear present on Runway 26.
Visibilidad 9700m
Tiempo -
Nubes Few Clouds 6000ft
Presión 1004
Cambiar Becoming: Wind 120º 15kt. Gust 25KT.
Bruto LOWI 251320Z 26005KT 220V300 9999 FEW060 09/02 Q1004 WS R26 BECMG 12015G25KT

VFR

8°C / 3°C

[Más]
Viento 240º variable 180º to 320º 5kt. Wind Shear present on All Runways.
Visibilidad 9700m
Tiempo -
Nubes Few Clouds 5000ft
Presión 1005
Cambiar Becoming: Wind 120º 15kt. Gust 25KT.
Bruto LOWI 251250Z 24005KT 180V320 9999 FEW050 08/03 Q1005 WS ALL RWY BECMG 12015G25KT

VFR

7°C / 2°C

[Más]
Viento 270º 7kt. Wind Shear present on Runway 26.
Visibilidad 9700m
Tiempo -
Nubes Few Clouds 5000ft
Presión 1005
Cambiar Becoming: from 1300 Wind 120º 15kt. Gust 25KT.
Bruto LOWI 251220Z 27007KT 9999 FEW050 07/02 Q1005 WS R26 BECMG FM1300 12015G25KT

VFR

6°C / 2°C

[Más]
Viento 270º variable 240º to 300º 6kt
Visibilidad 9700m
Tiempo -
Nubes Few Clouds 5000ft
Presión 1006
Cambiar No Significant change
Bruto LOWI 251150Z 27006KT 240V300 9999 FEW050 06/02 Q1006 NOSIG

VFR

5°C / 1°C

[Más]
Viento 270º variable 200º to 310º 6kt
Visibilidad 9700m
Tiempo -
Nubes Few Clouds 1400ft
Presión 1006
Cambiar No Significant change
Bruto LOWI 251120Z 27006KT 200V310 9999 FEW014 05/01 Q1006 NOSIG

VFR

4°C / 1°C

[Más]
Viento 260º variable 180º to 310º 4kt
Visibilidad 9700m
Tiempo -
Nubes Few Clouds 1100ft
Presión 1007
Cambiar No Significant change
Bruto LOWI 251050Z 26004KT 180V310 9999 FEW011 04/01 Q1007 NOSIG

VFR

4°C / 1°C

[Más]
Viento 290º variable 230º to 010º 3kt
Visibilidad 9700m
Tiempo -
Nubes Few Clouds 400ft
Scattered Clouds 1100ft
Presión 1007
Cambiar No Significant change
Bruto LOWI 251020Z 29003KT 230V010 9999 FEW004 SCT011 04/01 Q1007 NOSIG

MVFR

3°C / 1°C

[Más]
Viento 280º variable 230º to 310º 3kt
Visibilidad 9700m
Tiempo -
Nubes Few Clouds 400ft
Broken Clouds 1100ft
Presión 1008
Cambiar Becoming: Scattered Clouds 1200ft.
Bruto LOWI 250950Z 28003KT 230V310 9999 FEW004 BKN011 03/01 Q1008 BECMG SCT012

MVFR

3°C / 2°C

[Más]
Viento 1kt
Visibilidad 6000m
Tiempo -
Nubes Few Clouds 400ft
Broken Clouds 1000ft
Presión 1008
Cambiar Becoming: Scattered Clouds 1000ft.
Bruto LOWI 250920Z VRB01KT 6000 FEW004 BKN010 03/02 Q1008 BECMG SCT010

TAF a Innsbruck (LOWI)

From till


Maximum Temperature 12ºC on . Minimum Temperature 2ºC on .
From till Wind 120º 10kt. Gust 20kt. Visibility 9700m. Few Clouds 6000ft.
Becoming from till
Becoming from till
Temporarly from till Wind 140º 15kt. Gust 30kt.

Bruto: TAF LOWI 251715Z 2518/2618 12010G20KT 9999 FEW060 TX12/2615Z TN02/2606Z BECMG 2519/2521 27007KT BECMG 2610/2612 12012G25KT TEMPO 2613/2617 14015G30KT

Radar y precipitación nowcast para Innsbruck

llovizna
Leve
Moderado
Fuerte
Muy fuerte
Granizo

El marcador del lugar se coloca en Innsbruck. Esta animación muestra el radar de precipitación para el intervalo de tiempo seleccionado, así como una previsión de 2h. Las cruces naranjas indican rayos. Datos proporcionados por nowcast.de (disponibles en EE.UU., Europa y Australia). La llovizna o una ligera nevada pueden ser invisibles para el radar. La intensidad de la precipitación está codificada por colores, del turquesa al rojo.

Imágenes actuales de satélite y lluvia para Innsbruck, Austria

El marcador del lugar se coloca en Innsbruck. [Más]

La imagen de satélite en tiempo real se aprovecha de la combinación de bandas de la luz visible y de la luz infrarroja. Cómo se pueden detectar cambios de temperaturas a través de la banda infrarrojo, la imagen no aparece oscura de noche. No obstante, la niebla y las nubes bajas son apenas visibles en las imágenes de infrarrojo ya que las diferencias de temperaturas entre el suelo y la niebla son muy pequeñas, por eso, son casi invisibles durante la noche. Las imágenes de satélite del Meteosat (Europa) son actualizados en tiempo real cada 5 minutos. Las imágenes del GOES-16/GOES-17 (América del Norte y América del Sur) y Himawari (Asia) son actualizadas cada 10 minutos.

La precipitación se estima a partir del radar y de los satélites. Las estimaciones de la precipitación desde los satélites son menos precisas durante la noche que durante el día.

© 2024 meteoblue, NOAA Satellites GOES-16 and EUMETSAT. Datos de relámpagos proporcionados por nowcast.

Volver al principio
×
Hola,
parece que está usando un bloqueador de anuncios.

La publicidad es esencial para mantener nuestro sitio web gratuito con detalle y precisión únicos.

Por favor, incluya www.meteoblue.com en la lista blanca de su bloqueador de anuncios o considere comprar uno de nuestros productos:

¿Ya hay subscripción?
Entonces, por favor, iniciar sesión.